Pagrindinis puslapis
METAR-TAF:

METAR-TAF

Oro uostai :

Pekino tarptautinis oro uostas

Pekinas, Kinija

platuma: 39-56N, ilguma: 116-17E, Aukštis: 55 m

Dabartinis oras

Ataskaita buvo paskelbta 10 minutes, ne 09:30 UTC
Vėjas 4 kt iš Rytų/Šiaurės Rytų, svyruoja nuo Šiaurės/Šiaurės Rytų ir Rytų
Temperatūra 17°C
Drėgmė 48%
Slėgis 1016 hPa
Matomumas: 8000 m

METAR: ZBAA 310930Z 06002MPS 020V090 8000 NSC 17/06 Q1016 NOSIG

Laikas: 17:40 (09:40 UTC)

Prognozė

Ataskaita buvo paskelbta 6 valandos ir 39 minutes, ne 03:01 UTC
Prognozė galioja nuo 31 metu 06 UTC su 01 metu 06 UTC
Vėjas 8 kt iš Pietų
Matomumas: 6000 m

TAF: ZBAA 310301Z 3106/0106 18004MPS 6000 NSC TX19/3107Z TN05/3121Z

Orai ataskaitas ir orų prognozės (METAR, TAF).

turimą stotys yra geltonos ir raudonos taškus žemėlapyje.

Perkelti pele per norėdami pamatyti stoties vardą.

Tada spustelėkite, norėdami matyti oro stebėjimo ir prognozės.

Norėdami pakeisti žemėlapį: spustelėkite ant žalios mygtukų su juodo kryžiaus žemyn,; žalią mygtuką su brūkšneliu, jei norite nutolinti; arba žalių rodyklių gretimoms žemėlapius.


METAR-TAF: